Time;durP1;ratioP1;P1;durP2;ratioP2;P2;SDS_P1;SDS_P2;PMS_P1;PMS_P2;Temp;Humidity;BMP_temperature;BMP_pressure;BME280_temperature;BME280_humidity;BME280_pressure;Samples;Min_cycle;Max_cycle;Signal;HPM_P1;HPM_P2
2023/06/15 00:00:29;;;;;;;2.03;1.60;;;25.20;47.90;;;;;;5053965;28;20211;-58
2023/06/15 00:02:55;;;;;;;2.45;1.65;;;25.20;47.80;;;;;;5054025;28;20676;-59
2023/06/15 00:05:21;;;;;;;1.90;1.80;;;25.20;47.90;;;;;;5052977;28;20565;-60
2023/06/15 00:07:47;;;;;;;1.73;1.63;;;25.10;47.80;;;;;;5053786;28;20664;-59
2023/06/15 00:10:12;;;;;;;1.70;1.60;;;25.20;47.90;;;;;;5053280;28;20168;-59
2023/06/15 00:12:38;;;;;;;1.67;1.58;;;25.10;47.90;;;;;;5052999;28;20214;-59
2023/06/15 00:15:04;;;;;;;1.65;1.55;;;25.10;47.90;;;;;;5053291;28;20180;-59
2023/06/15 00:17:30;;;;;;;1.60;1.50;;;25.10;47.90;;;;;;5053598;28;20175;-59
2023/06/15 00:19:57;;;;;;;2.55;1.83;;;25.10;47.90;;;;;;5052356;28;20211;-59
2023/06/15 00:22:26;;;;;;;2.00;1.80;;;25.10;47.90;;;;;;5053328;28;20637;-59
2023/06/15 00:24:54;;;;;;;2.10;1.90;;;25.10;48.00;;;;;;5053617;28;20226;-60
2023/06/15 00:27:20;;;;;;;2.13;1.67;;;25.10;48.00;;;;;;5052397;28;20537;-59
2023/06/15 00:29:45;;;;;;;1.60;1.50;;;25.10;48.00;;;;;;5053461;28;20179;-58
2023/06/15 00:32:11;;;;;;;1.90;1.80;;;25.10;48.00;;;;;;5052366;28;20502;-59
2023/06/15 00:34:37;;;;;;;1.95;1.85;;;25.10;48.10;;;;;;5053176;28;20536;-59
2023/06/15 00:37:02;;;;;;;1.95;1.70;;;25.10;48.10;;;;;;5052787;28;20698;-59
2023/06/15 00:39:28;;;;;;;2.20;2.00;;;25.10;48.10;;;;;;5052464;28;20207;-59
2023/06/15 00:41:53;;;;;;;2.00;1.85;;;25.10;48.10;;;;;;5053146;28;20171;-58
2023/06/15 00:44:19;;;;;;;1.77;1.63;;;25.10;48.10;;;;;;5052842;28;20182;-59
2023/06/15 00:46:45;;;;;;;2.10;1.88;;;25.10;48.30;;;;;;5052271;28;20175;-59
2023/06/15 00:49:10;;;;;;;2.33;1.85;;;25.10;48.20;;;;;;5052915;28;20211;-59
2023/06/15 00:51:38;;;;;;;2.05;1.63;;;25.00;48.10;;;;;;5052950;28;20174;-58
2023/06/15 00:54:04;;;;;;;1.67;1.58;;;25.10;48.20;;;;;;5050860;28;20175;-58
2023/06/15 00:56:29;;;;;;;2.22;1.90;;;25.00;48.20;;;;;;5051800;28;20193;-59
2023/06/15 00:58:56;;;;;;;2.05;1.85;;;25.00;48.20;;;;;;5051883;28;20265;-59
2023/06/15 01:01:21;;;;;;;2.42;1.90;;;25.00;48.20;;;;;;5052092;28;20209;-59
2023/06/15 01:03:47;;;;;;;1.90;1.80;;;25.10;48.30;;;;;;5052820;28;20254;-59
2023/06/15 01:06:13;;;;;;;2.65;2.45;;;25.00;48.20;;;;;;5052643;28;20266;-59
2023/06/15 01:08:40;;;;;;;1.88;1.77;;;25.00;48.20;;;;;;5052097;28;20571;-59
2023/06/15 01:11:05;;;;;;;2.28;2.08;;;25.00;48.30;;;;;;5051318;28;20258;-59
2023/06/15 01:13:31;;;;;;;2.13;1.98;;;25.00;48.30;;;;;;5035036;28;20692;-59
2023/06/15 01:15:57;;;;;;;1.83;1.73;;;25.00;48.40;;;;;;5050488;28;20654;-59
2023/06/15 01:18:24;;;;;;;2.38;2.15;;;25.00;48.50;;;;;;5051808;28;20171;-59
2023/06/15 01:20:50;;;;;;;2.25;2.10;;;25.00;48.40;;;;;;5039124;28;20666;-59
2023/06/15 01:23:25;;;;;;;2.03;1.90;;;25.00;48.50;;;;;;5038381;28;20171;-58
2023/06/15 01:26:07;;;;;;;2.05;1.95;;;24.90;49.10;;;;;;5055707;28;20206;-59
2023/06/15 01:28:40;;;;;;;3.10;1.75;;;25.00;48.50;;;;;;5055947;28;20228;-58
2023/06/15 01:31:06;;;;;;;1.95;1.85;;;25.00;48.50;;;;;;5055523;28;20236;-58
2023/06/15 01:33:32;;;;;;;2.40;1.95;;;25.00;48.50;;;;;;5055624;28;20171;-59
2023/06/15 01:35:58;;;;;;;2.10;1.90;;;25.00;48.50;;;;;;5055388;28;20579;-59
2023/06/15 01:38:26;;;;;;;2.15;2.05;;;24.90;48.50;;;;;;5056607;28;20178;-59
2023/06/15 01:40:51;;;;;;;2.22;2.03;;;25.00;48.50;;;;;;5055441;28;20214;-59
2023/06/15 01:43:21;;;;;;;2.63;2.00;;;25.00;48.50;;;;;;5054376;28;20699;-59
2023/06/15 01:45:47;;;;;;;1.95;1.80;;;25.00;48.50;;;;;;5055265;28;20650;-59
2023/06/15 01:48:13;;;;;;;2.03;1.92;;;25.00;48.60;;;;;;5038497;28;20210;-59
2023/06/15 01:50:39;;;;;;;2.30;2.10;;;25.00;48.60;;;;;;5055928;28;20175;-58
2023/06/15 01:53:04;;;;;;;2.35;2.15;;;25.00;48.60;;;;;;5054996;28;20172;-58
2023/06/15 01:55:30;;;;;;;3.00;2.22;;;25.00;48.70;;;;;;5056301;28;20258;-58
2023/06/15 01:57:55;;;;;;;1.90;1.80;;;25.00;48.70;;;;;;5055357;28;20218;-58
2023/06/15 02:00:23;;;;;;;2.70;1.90;;;24.90;48.70;;;;;;5056388;28;20207;-59
2023/06/15 02:02:48;;;;;;;2.30;2.15;;;24.90;48.60;;;;;;5056225;28;20171;-59
2023/06/15 02:05:14;;;;;;;2.13;2.03;;;24.90;48.70;;;;;;5054980;28;20517;-59
2023/06/15 02:07:40;;;;;;;3.22;2.15;;;24.90;48.70;;;;;;5056089;28;20178;-59
2023/06/15 02:10:06;;;;;;;2.75;2.25;;;25.00;48.70;;;;;;5055878;28;20167;-59
2023/06/15 02:12:31;;;;;;;1.90;1.80;;;24.90;48.70;;;;;;5055203;28;20175;-61
2023/06/15 02:15:01;;;;;;;2.90;2.30;;;24.90;48.70;;;;;;5055847;28;20171;-59
2023/06/15 02:17:30;;;;;;;2.70;2.10;;;24.90;48.80;;;;;;5056041;28;20179;-58
2023/06/15 02:19:56;;;;;;;2.50;2.30;;;24.90;48.80;;;;;;5054788;28;20302;-59
2023/06/15 02:22:22;;;;;;;2.47;2.28;;;24.90;48.80;;;;;;5055693;28;20646;-59
2023/06/15 02:24:47;;;;;;;2.40;2.20;;;24.90;48.80;;;;;;5054816;28;20233;-59
2023/06/15 02:27:13;;;;;;;2.40;2.10;;;24.90;48.80;;;;;;5055619;28;20175;-58
2023/06/15 02:29:38;;;;;;;2.47;2.28;;;24.90;48.80;;;;;;5055686;28;20179;-58
2023/06/15 02:32:04;;;;;;;2.97;1.95;;;24.80;48.80;;;;;;5054730;28;20175;-59
2023/06/15 02:34:30;;;;;;;2.88;2.00;;;24.90;48.80;;;;;;5055657;28;20638;-59
2023/06/15 02:36:56;;;;;;;2.63;2.42;;;24.90;48.90;;;;;;5055071;28;20269;-59
2023/06/15 02:39:21;;;;;;;2.22;2.13;;;24.90;48.90;;;;;;5054640;28;20657;-59
2023/06/15 02:41:47;;;;;;;2.53;1.90;;;24.80;48.90;;;;;;5055445;28;20171;-59
2023/06/15 02:44:14;;;;;;;2.67;2.08;;;24.80;48.90;;;;;;5055290;28;20633;-59
2023/06/15 02:46:40;;;;;;;2.30;2.10;;;24.90;49.00;;;;;;5054730;28;20217;-59
2023/06/15 02:49:06;;;;;;;2.30;2.10;;;24.80;48.90;;;;;;5054926;28;20206;-58
2023/06/15 02:51:32;;;;;;;2.45;2.10;;;24.80;48.90;;;;;;5055225;28;20186;-58
2023/06/15 02:53:58;;;;;;;2.20;2.00;;;24.80;49.00;;;;;;5054307;28;20181;-58
2023/06/15 02:56:23;;;;;;;2.50;2.28;;;24.80;49.00;;;;;;5055200;28;20543;-58
2023/06/15 02:58:53;;;;;;;2.40;2.17;;;24.80;49.00;;;;;;5055231;28;20652;-59
2023/06/15 03:01:20;;;;;;;2.38;2.15;;;24.80;49.00;;;;;;5054301;28;20232;-59
2023/06/15 03:03:45;;;;;;;2.38;2.17;;;24.80;49.00;;;;;;5054702;28;20181;-59
2023/06/15 03:06:11;;;;;;;2.78;2.30;;;24.80;49.10;;;;;;5054687;28;20288;-59
2023/06/15 03:08:37;;;;;;;2.10;2.00;;;24.80;49.00;;;;;;5054046;28;20209;-58
2023/06/15 03:11:03;;;;;;;2.40;2.20;;;24.80;49.10;;;;;;5054403;28;20179;-58
2023/06/15 03:13:29;;;;;;;2.20;2.10;;;24.80;49.10;;;;;;5054994;28;20175;-59
2023/06/15 03:15:55;;;;;;;2.60;2.40;;;24.80;49.10;;;;;;5054181;28;20175;-59
2023/06/15 03:18:21;;;;;;;2.70;1.98;;;24.80;49.10;;;;;;5054852;28;20183;-59
2023/06/15 03:20:52;;;;;;;2.20;2.10;;;24.80;49.10;;;;;;5054733;28;20214;-59
2023/06/15 03:23:18;;;;;;;2.35;2.10;;;24.80;49.10;;;;;;5054108;28;20187;-59
2023/06/15 03:25:44;;;;;;;2.55;2.33;;;24.80;49.10;;;;;;5054809;28;20232;-59
2023/06/15 03:28:10;;;;;;;2.17;2.00;;;24.80;49.20;;;;;;5053482;28;20633;-59
2023/06/15 03:30:36;;;;;;;2.00;1.90;;;24.80;49.20;;;;;;5054641;28;20186;-58
2023/06/15 03:33:02;;;;;;;2.10;2.00;;;24.80;49.20;;;;;;5053990;28;20176;-58
2023/06/15 03:35:28;;;;;;;2.30;2.10;;;24.80;49.10;;;;;;5053759;28;20225;-58
2023/06/15 03:37:53;;;;;;;2.83;2.55;;;24.80;49.20;;;;;;5054179;28;20218;-59
2023/06/15 03:40:19;;;;;;;2.42;2.22;;;24.80;49.20;;;;;;5054074;28;20211;-59
2023/06/15 03:42:45;;;;;;;2.28;2.08;;;24.80;49.10;;;;;;5053110;28;20178;-59
2023/06/15 03:45:10;;;;;;;2.70;2.50;;;24.80;49.20;;;;;;5054067;28;20266;-59
2023/06/15 03:47:36;;;;;;;2.50;2.30;;;24.80;49.20;;;;;;5054298;28;20177;-59
2023/06/15 03:50:02;;;;;;;2.50;2.30;;;24.80;49.80;;;;;;5053280;28;20182;-59
2023/06/15 03:52:27;;;;;;;2.60;2.40;;;24.80;49.20;;;;;;5053749;28;20642;-59
2023/06/15 03:54:53;;;;;;;2.60;2.40;;;24.70;49.10;;;;;;5054195;28;20717;-58
2023/06/15 03:57:19;;;;;;;2.50;2.30;;;24.80;49.80;;;;;;5053158;28;20167;-59
2023/06/15 03:59:44;;;;;;;2.42;2.22;;;24.80;49.20;;;;;;5053746;28;20300;-59
2023/06/15 04:02:10;;;;;;;2.92;2.00;;;24.70;49.10;;;;;;5053592;28;20179;-59
2023/06/15 04:04:35;;;;;;;2.90;2.20;;;24.70;49.10;;;;;;5053088;28;20186;-59
2023/06/15 04:07:01;;;;;;;2.90;2.65;;;24.70;49.10;;;;;;5053358;28;20622;-59
2023/06/15 04:09:27;;;;;;;2.60;2.40;;;24.70;49.10;;;;;;5053656;28;20228;-59
2023/06/15 04:11:52;;;;;;;2.83;2.55;;;24.80;49.20;;;;;;5053115;28;20182;-58
2023/06/15 04:14:18;;;;;;;3.60;2.20;;;24.70;49.10;;;;;;5053431;28;20175;-58
2023/06/15 04:16:44;;;;;;;3.35;2.30;;;24.80;49.20;;;;;;5053836;28;20173;-58
2023/06/15 04:19:10;;;;;;;2.55;2.22;;;24.70;49.10;;;;;;5052570;28;20642;-58
2023/06/15 04:21:36;;;;;;;4.13;2.22;;;24.80;49.20;;;;;;5053544;28;20186;-58
2023/06/15 04:24:02;;;;;;;2.78;2.38;;;24.70;49.10;;;;;;5053323;28;20203;-59
2023/06/15 04:26:28;;;;;;;2.22;2.10;;;24.70;49.20;;;;;;5052794;28;20211;-58
2023/06/15 04:28:58;;;;;;;2.55;2.35;;;24.70;49.20;;;;;;5053293;28;20175;-59
2023/06/15 04:31:24;;;;;;;2.78;2.17;;;24.70;49.10;;;;;;5052850;28;20183;-59
2023/06/15 04:33:50;;;;;;;3.00;2.70;;;24.70;49.20;;;;;;5035616;28;20588;-58
2023/06/15 04:36:16;;;;;;;3.05;2.75;;;24.70;49.10;;;;;;5052852;28;20226;-58
2023/06/15 04:38:46;;;;;;;2.80;2.20;;;24.70;49.20;;;;;;5052622;28;20179;-58
2023/06/15 04:41:12;;;;;;;2.90;2.42;;;24.70;49.20;;;;;;5052846;28;20202;-59
2023/06/15 04:43:37;;;;;;;3.05;2.22;;;24.70;49.20;;;;;;5051718;28;20211;-58
2023/06/15 04:46:03;;;;;;;3.88;2.60;;;24.70;49.20;;;;;;5052159;28;20221;-59
2023/06/15 04:48:29;;;;;;;2.75;2.55;;;24.70;49.90;;;;;;5053278;28;20214;-59
2023/06/15 04:50:56;;;;;;;2.85;2.65;;;24.70;49.20;;;;;;5052990;28;20203;-58
2023/06/15 04:53:21;;;;;;;2.42;2.22;;;24.70;49.20;;;;;;5051375;28;20585;-58
2023/06/15 04:55:48;;;;;;;3.97;2.70;;;24.70;49.20;;;;;;5053034;28;20221;-58
2023/06/15 04:58:13;;;;;;;2.53;2.33;;;24.70;49.20;;;;;;5053051;28;20171;-57
2023/06/15 05:00:39;;;;;;;2.88;2.67;;;24.70;49.20;;;;;;5051939;28;20645;-58
2023/06/15 05:03:05;;;;;;;2.42;2.08;;;24.70;49.30;;;;;;5052764;28;20179;-59
2023/06/15 05:05:30;;;;;;;2.45;2.25;;;24.70;49.20;;;;;;5052911;28;20557;-59
2023/06/15 05:07:56;;;;;;;2.40;2.17;;;24.80;49.30;;;;;;5051774;28;20529;-58
2023/06/15 05:10:21;;;;;;;4.35;2.42;;;24.70;49.30;;;;;;5052906;28;20551;-57
2023/06/15 05:12:47;;;;;;;3.33;2.60;;;24.70;49.40;;;;;;5052897;28;20665;-58
2023/06/15 05:15:12;;;;;;;2.63;2.42;;;24.80;49.30;;;;;;5051773;28;20625;-58
2023/06/15 05:17:38;;;;;;;2.70;2.50;;;24.70;49.30;;;;;;5052726;28;20171;-58
2023/06/15 05:20:05;;;;;;;4.00;2.25;;;24.80;49.30;;;;;;5052231;28;20304;-58
2023/06/15 05:22:31;;;;;;;2.63;2.40;;;24.80;49.30;;;;;;5052160;28;20179;-58
2023/06/15 05:24:56;;;;;;;3.33;3.00;;;24.80;49.40;;;;;;5052437;28;20186;-58
2023/06/15 05:27:22;;;;;;;2.67;2.47;;;24.70;49.30;;;;;;5052511;28;20740;-57
2023/06/15 05:29:47;;;;;;;3.13;2.10;;;24.80;49.40;;;;;;5051811;28;20179;-58
2023/06/15 05:32:13;;;;;;;3.03;2.30;;;24.70;49.30;;;;;;5052334;28;20195;-59
2023/06/15 05:34:39;;;;;;;2.50;2.30;;;24.70;49.30;;;;;;5051844;28;20171;-58
2023/06/15 05:37:04;;;;;;;2.92;2.70;;;24.70;49.30;;;;;;5052130;28;20219;-59
2023/06/15 05:39:30;;;;;;;2.60;2.40;;;24.70;49.40;;;;;;5052547;28;20207;-58
2023/06/15 05:41:56;;;;;;;2.53;2.33;;;24.70;49.30;;;;;;5051549;28;20711;-58
2023/06/15 05:44:21;;;;;;;2.60;2.40;;;24.70;49.40;;;;;;5052354;28;20262;-58
2023/06/15 05:46:47;;;;;;;2.97;2.47;;;24.70;49.40;;;;;;5052386;28;20175;-58
2023/06/15 05:49:12;;;;;;;2.75;2.25;;;24.70;49.30;;;;;;5051335;28;20202;-58
2023/06/15 05:51:38;;;;;;;2.50;2.30;;;24.70;49.40;;;;;;5052578;28;20178;-58
2023/06/15 05:54:03;;;;;;;2.35;2.15;;;24.70;49.40;;;;;;5052334;28;20673;-57
2023/06/15 05:56:30;;;;;;;2.72;2.42;;;24.70;49.40;;;;;;5051718;28;20178;-58
2023/06/15 05:58:55;;;;;;;2.50;2.30;;;24.70;49.40;;;;;;5052009;28;20176;-59
2023/06/15 06:01:21;;;;;;;2.60;2.40;;;24.80;49.40;;;;;;5052302;28;20185;-58
2023/06/15 06:03:47;;;;;;;2.30;2.10;;;24.70;49.40;;;;;;5051444;28;20175;-59
2023/06/15 06:06:13;;;;;;;2.70;2.20;;;24.70;49.40;;;;;;5054979;28;20529;-58
2023/06/15 06:08:38;;;;;;;2.92;2.45;;;24.80;49.50;;;;;;5055798;28;20174;-58
2023/06/15 06:11:07;;;;;;;2.72;2.53;;;24.70;49.40;;;;;;5055083;28;20175;-58
2023/06/15 06:13:33;;;;;;;2.35;2.13;;;24.70;49.40;;;;;;5055829;28;20202;-58
2023/06/15 06:16:00;;;;;;;2.67;2.40;;;24.70;49.40;;;;;;5055549;28;20642;-59
2023/06/15 06:18:25;;;;;;;2.30;2.10;;;24.70;49.40;;;;;;5055009;28;20277;-58
2023/06/15 06:20:51;;;;;;;2.53;2.40;;;24.70;49.40;;;;;;5055973;28;20306;-58
2023/06/15 06:23:16;;;;;;;2.63;2.42;;;24.70;49.40;;;;;;5055630;28;20211;-58
2023/06/15 06:25:42;;;;;;;2.58;2.38;;;24.70;49.50;;;;;;5055003;28;20210;-57
2023/06/15 06:28:07;;;;;;;2.80;2.60;;;24.70;49.50;;;;;;5055476;28;20203;-58
2023/06/15 06:30:33;;;;;;;2.35;2.25;;;24.70;49.50;;;;;;5055632;28;20203;-58
2023/06/15 06:32:59;;;;;;;5.10;2.80;;;24.70;49.60;;;;;;5054499;28;20202;-57
2023/06/15 06:35:24;;;;;;;3.60;2.45;;;24.70;49.50;;;;;;5055740;28;20229;-58
2023/06/15 06:37:50;;;;;;;6.25;2.90;;;24.70;49.60;;;;;;5054693;28;20231;-57
2023/06/15 06:40:15;;;;;;;3.40;2.65;;;24.80;49.80;;;;;;5055105;28;20219;-57
2023/06/15 06:42:41;;;;;;;7.45;2.75;;;24.70;49.70;;;;;;5055367;28;20182;-59
2023/06/15 06:45:07;;;;;;;3.45;2.63;;;24.80;49.80;;;;;;5054347;28;20181;-58
2023/06/15 06:47:32;;;;;;;3.55;2.83;;;24.80;49.70;;;;;;5055218;28;20178;-58
2023/06/15 06:50:01;;;;;;;2.55;2.35;;;24.80;49.80;;;;;;5055114;28;20179;-59
2023/06/15 06:52:27;;;;;;;4.07;2.55;;;24.80;49.60;;;;;;5054617;28;20167;-58
2023/06/15 06:54:52;;;;;;;4.07;2.90;;;24.80;49.60;;;;;;5055023;28;20191;-58
2023/06/15 06:57:18;;;;;;;2.40;2.20;;;24.80;49.60;;;;;;5054829;28;20172;-58
2023/06/15 06:59:43;;;;;;;2.63;2.42;;;24.80;49.60;;;;;;5054240;28;20253;-59
2023/06/15 07:02:09;;;;;;;3.50;2.53;;;24.80;49.60;;;;;;5054589;28;20175;-58
2023/06/15 07:04:34;;;;;;;3.13;2.40;;;24.80;49.70;;;;;;5055104;28;20190;-58
2023/06/15 07:07:00;;;;;;;3.85;2.70;;;24.80;49.70;;;;;;5054126;28;20668;-59
2023/06/15 07:09:25;;;;;;;2.50;2.22;;;24.80;49.70;;;;;;5054953;28;20171;-59
2023/06/15 07:11:51;;;;;;;7.10;3.05;;;24.80;49.80;;;;;;5054789;28;20233;-58
2023/06/15 07:14:17;;;;;;;4.25;2.40;;;24.80;49.70;;;;;;5053756;28;20583;-59
2023/06/15 07:16:42;;;;;;;5.00;2.70;;;24.80;49.80;;;;;;5053584;28;20175;-59
2023/06/15 07:19:08;;;;;;;3.20;2.90;;;24.80;49.80;;;;;;5054205;28;20233;-59
2023/06/15 07:21:33;;;;;;;2.67;2.42;;;24.80;49.80;;;;;;5053832;28;20187;-55
2023/06/15 07:23:59;;;;;;;2.65;2.45;;;24.80;49.80;;;;;;5054458;28;20167;-58
2023/06/15 07:26:25;;;;;;;3.25;2.67;;;24.90;49.80;;;;;;5054565;28;20665;-58
2023/06/15 07:28:50;;;;;;;2.95;2.53;;;24.80;49.80;;;;;;5053876;28;20199;-58
2023/06/15 07:31:16;;;;;;;5.15;3.03;;;24.80;49.80;;;;;;5054120;28;20182;-58
2023/06/15 07:33:41;;;;;;;2.65;2.45;;;24.80;49.80;;;;;;5054609;28;20509;-58
2023/06/15 07:36:07;;;;;;;2.85;2.25;;;24.80;49.80;;;;;;5053340;28;20225;-58
2023/06/15 07:38:32;;;;;;;4.00;2.55;;;24.90;49.80;;;;;;5054326;28;20278;-59
2023/06/15 07:40:58;;;;;;;2.72;2.50;;;24.80;49.80;;;;;;5053960;28;20217;-59
2023/06/15 07:43:23;;;;;;;2.65;2.45;;;24.90;49.90;;;;;;5053541;28;20171;-59
2023/06/15 07:45:49;;;;;;;3.25;2.88;;;24.90;50.00;;;;;;5054130;28;20179;-59
2023/06/15 07:48:14;;;;;;;2.92;2.40;;;24.90;49.90;;;;;;5053318;28;20523;-58
2023/06/15 07:50:40;;;;;;;4.18;2.70;;;24.90;50.00;;;;;;5054107;28;20316;-58
2023/06/15 07:53:05;;;;;;;2.88;2.65;;;24.90;49.90;;;;;;5053767;28;20195;-58
2023/06/15 07:55:31;;;;;;;2.15;2.05;;;24.90;50.00;;;;;;5053317;28;20265;-58
2023/06/15 07:57:57;;;;;;;2.50;2.30;;;24.90;50.30;;;;;;5053580;28;20174;-58
2023/06/15 08:00:23;;;;;;;2.85;2.65;;;24.90;50.20;;;;;;5053913;28;20210;-58
2023/06/15 08:02:48;;;;;;;3.17;2.90;;;24.90;50.10;;;;;;5053120;28;20221;-58
2023/06/15 08:05:15;;;;;;;3.03;2.63;;;24.90;50.10;;;;;;5053422;28;20171;-58
2023/06/15 08:07:41;;;;;;;3.58;2.53;;;24.80;50.00;;;;;;5053666;28;20638;-58
2023/06/15 08:10:06;;;;;;;4.30;2.45;;;24.90;50.10;;;;;;5052726;28;20183;-58
2023/06/15 08:12:32;;;;;;;2.25;2.03;;;24.80;50.10;;;;;;5053639;28;20199;-57
2023/06/15 08:14:57;;;;;;;5.07;2.35;;;24.80;50.10;;;;;;5053217;28;20182;-58
2023/06/15 08:17:25;;;;;;;3.35;2.20;;;24.80;50.10;;;;;;5053009;28;20175;-58
2023/06/15 08:19:51;;;;;;;2.65;2.45;;;24.80;50.10;;;;;;5053703;28;20366;-58
2023/06/15 08:22:16;;;;;;;3.17;2.88;;;24.80;50.10;;;;;;5053362;28;20225;-57
2023/06/15 08:24:42;;;;;;;2.88;2.38;;;24.80;50.10;;;;;;5052785;28;20528;-57
2023/06/15 08:27:08;;;;;;;2.80;2.60;;;24.80;50.00;;;;;;5053217;28;20171;-57
2023/06/15 08:29:34;;;;;;;3.63;2.83;;;24.90;50.10;;;;;;5053454;28;20187;-58
2023/06/15 08:31:59;;;;;;;3.05;2.75;;;24.80;50.00;;;;;;5052767;28;20175;-58
2023/06/15 08:34:25;;;;;;;2.53;2.42;;;24.80;50.00;;;;;;5053476;28;20175;-58
2023/06/15 08:36:50;;;;;;;3.42;2.65;;;24.90;50.00;;;;;;5053026;28;20872;-58
2023/06/15 08:39:16;;;;;;;2.60;2.40;;;24.90;50.00;;;;;;5052093;28;20682;-57
2023/06/15 08:41:45;;;;;;;2.65;2.45;;;24.90;50.00;;;;;;5053558;28;20228;-59
2023/06/15 08:44:10;;;;;;;3.25;2.95;;;24.90;50.00;;;;;;5051594;28;20206;-59
2023/06/15 08:46:36;;;;;;;2.58;2.38;;;24.90;50.00;;;;;;5052272;28;20203;-58
2023/06/15 08:49:02;;;;;;;3.40;2.90;;;24.90;49.90;;;;;;5052938;28;20289;-58
2023/06/15 08:51:28;;;;;;;3.25;2.72;;;24.90;49.90;;;;;;5052421;28;20656;-58
2023/06/15 08:53:56;;;;;;;3.38;2.45;;;24.90;49.80;;;;;;5035160;28;20175;-58
2023/06/15 08:56:22;;;;;;;3.97;2.80;;;24.90;49.80;;;;;;5052904;28;20186;-57
2023/06/15 08:58:50;;;;;;;2.83;2.60;;;24.90;49.80;;;;;;5051826;28;20167;-58
2023/06/15 09:01:21;;;;;;;3.08;2.58;;;24.90;49.70;;;;;;5052560;28;20218;-57
2023/06/15 09:03:47;;;;;;;4.78;2.92;;;24.90;49.70;;;;;;5052925;28;20178;-58
2023/06/15 09:06:12;;;;;;;3.72;2.92;;;24.90;49.80;;;;;;5051920;28;20179;-58
2023/06/15 09:08:38;;;;;;;3.78;2.50;;;24.90;49.70;;;;;;5052971;28;20515;-58
2023/06/15 09:11:08;;;;;;;2.88;2.67;;;24.90;49.50;;;;;;5051361;28;20175;-58
2023/06/15 09:13:34;;;;;;;3.22;2.70;;;25.00;49.50;;;;;;5052115;28;20229;-58
2023/06/15 09:16:00;;;;;;;3.03;2.53;;;24.90;49.50;;;;;;5052641;28;20179;-58
2023/06/15 09:18:25;;;;;;;2.80;2.60;;;24.90;49.40;;;;;;5052750;28;20183;-58
2023/06/15 09:20:51;;;;;;;3.75;2.78;;;24.90;49.40;;;;;;5051775;28;20222;-58
2023/06/15 09:23:17;;;;;;;3.08;2.78;;;25.00;49.40;;;;;;5052577;28;20181;-58
2023/06/15 09:25:51;;;;;;;3.13;2.50;;;25.00;49.50;;;;;;5051481;28;20181;-58
2023/06/15 09:28:17;;;;;;;2.75;2.53;;;24.90;49.30;;;;;;5051729;28;20249;-57
2023/06/15 09:30:42;;;;;;;3.00;2.75;;;25.00;49.30;;;;;;5034667;28;20257;-58
2023/06/15 09:33:15;;;;;;;2.83;2.42;;;25.00;49.20;;;;;;5052179;28;20171;-57
2023/06/15 09:36:00;;;;;;;3.13;2.80;;;25.00;49.20;;;;;;5051949;28;20187;-58
2023/06/15 09:38:40;;;;;;;3.38;3.00;;;25.00;49.30;;;;;;5052320;28;20245;-58
2023/06/15 09:41:05;;;;;;;2.80;2.58;;;25.00;49.20;;;;;;5054483;28;20681;-57
2023/06/15 09:43:34;;;;;;;3.08;2.85;;;25.00;49.70;;;;;;5056615;28;20186;-57
2023/06/15 09:46:00;;;;;;;3.92;3.10;;;25.00;49.00;;;;;;5056166;28;20622;-57
2023/06/15 09:48:25;;;;;;;3.15;2.80;;;25.00;49.00;;;;;;5055722;28;20213;-57
2023/06/15 09:50:51;;;;;;;2.70;2.50;;;25.00;48.90;;;;;;5055293;28;20211;-57
2023/06/15 09:53:18;;;;;;;8.18;2.80;;;25.00;48.80;;;;;;5056170;28;20608;-57
2023/06/15 09:55:45;;;;;;;3.75;2.70;;;25.00;48.90;;;;;;5055767;28;20175;-57
2023/06/15 09:58:11;;;;;;;2.65;2.45;;;25.00;48.80;;;;;;5055879;28;20536;-57
2023/06/15 10:00:36;;;;;;;4.15;2.53;;;25.00;48.70;;;;;;5056114;28;20306;-57
2023/06/15 10:03:03;;;;;;;3.00;2.78;;;25.00;48.70;;;;;;5055170;28;20258;-57
2023/06/15 10:05:31;;;;;;;3.08;2.75;;;25.00;48.70;;;;;;5056069;28;20240;-58
2023/06/15 10:07:57;;;;;;;2.90;2.70;;;25.00;48.70;;;;;;5056013;28;20229;-58
2023/06/15 10:10:22;;;;;;;2.55;2.35;;;25.10;48.80;;;;;;5055352;28;20578;-57
2023/06/15 10:12:51;;;;;;;2.70;2.50;;;25.10;48.80;;;;;;5054865;28;20645;-57
2023/06/15 10:15:18;;;;;;;2.85;2.58;;;25.10;48.70;;;;;;5055588;28;20178;-57
2023/06/15 10:17:46;;;;;;;4.00;2.78;;;25.10;48.80;;;;;;5055128;28;20179;-57
2023/06/15 10:20:16;;;;;;;2.97;2.47;;;25.10;48.70;;;;;;5054209;28;20211;-57
2023/06/15 10:22:56;;;;;;;2.55;2.35;;;25.10;48.70;;;;;;5055807;28;20256;-57
2023/06/15 10:25:21;;;;;;;3.63;3.00;;;25.10;48.80;;;;;;5055961;28;20228;-57
2023/06/15 10:27:47;;;;;;;2.60;2.40;;;25.10;48.50;;;;;;5055808;28;20250;-57
2023/06/15 10:30:27;;;;;;;3.10;2.80;;;25.10;48.30;;;;;;5053629;28;20182;-57
2023/06/15 10:32:56;;;;;;;2.70;2.50;;;25.20;48.30;;;;;;5054622;28;20179;-57
2023/06/15 10:35:48;;;;;;;2.70;2.50;;;25.10;48.50;;;;;;5038154;28;20192;-57
2023/06/15 10:38:41;;;;;;;2.67;2.47;;;25.10;48.30;;;;;;5037933;28;20230;-57
2023/06/15 10:41:06;;;;;;;3.60;2.72;;;25.10;48.30;;;;;;5054096;28;20587;-57
2023/06/15 10:43:32;;;;;;;2.60;2.40;;;25.10;48.30;;;;;;5054175;28;20171;-57
2023/06/15 10:45:57;;;;;;;2.97;2.40;;;25.10;48.50;;;;;;5054439;28;20253;-57
2023/06/15 10:48:27;;;;;;;3.35;2.72;;;25.10;48.50;;;;;;5055322;28;20175;-57
2023/06/15 10:51:08;;;;;;;2.72;2.38;;;25.10;48.50;;;;;;5054344;28;20203;-56
2023/06/15 10:53:40;;;;;;;3.30;3.03;;;25.10;48.40;;;;;;5055261;28;20179;-57
2023/06/15 10:56:16;;;;;;;3.53;2.95;;;25.20;48.50;;;;;;5055152;28;20183;-57
2023/06/15 10:59:01;;;;;;;2.60;2.30;;;25.20;48.70;;;;;;5054054;28;20175;-58
2023/06/15 11:01:32;;;;;;;3.50;3.08;;;25.20;48.50;;;;;;5054715;28;20190;-57
2023/06/15 11:03:58;;;;;;;2.60;2.20;;;25.20;48.60;;;;;;5054556;28;20171;-57
2023/06/15 11:06:35;;;;;;;3.60;2.55;;;25.20;48.70;;;;;;5054247;28;20194;-57
2023/06/15 11:09:03;;;;;;;2.80;2.45;;;25.30;48.90;;;;;;5054696;28;20182;-57
2023/06/15 11:11:38;;;;;;;4.68;2.55;;;25.20;48.90;;;;;;5054804;28;20182;-57
2023/06/15 11:14:07;;;;;;;3.30;2.97;;;25.30;48.90;;;;;;5053672;28;20190;-57
2023/06/15 11:16:34;;;;;;;2.63;2.40;;;25.30;48.40;;;;;;5054918;28;20257;-57
2023/06/15 11:19:25;;;;;;;6.20;2.95;;;25.30;49.10;;;;;;5054341;28;20187;-57
2023/06/15 11:22:05;;;;;;;3.88;2.53;;;25.20;49.20;;;;;;5052162;28;20218;-57
2023/06/15 11:24:37;;;;;;;2.30;2.15;;;25.20;49.30;;;;;;5051951;28;20609;-56
2023/06/15 11:27:13;;;;;;;3.20;2.72;;;25.20;49.30;;;;;;5052979;28;20547;-56
2023/06/15 11:29:40;;;;;;;3.35;2.70;;;25.20;49.30;;;;;;5053091;28;20167;-57
2023/06/15 11:32:06;;;;;;;4.97;2.75;;;25.30;49.30;;;;;;5054125;28;20259;-57
2023/06/15 11:34:32;;;;;;;3.15;2.50;;;25.30;49.40;;;;;;5053725;28;20190;-58
2023/06/15 11:36:58;;;;;;;2.85;2.65;;;25.30;49.30;;;;;;5053801;28;20231;-58
2023/06/15 11:39:24;;;;;;;3.83;2.80;;;25.20;49.20;;;;;;5054523;28;20207;-58
2023/06/15 11:41:50;;;;;;;5.28;2.55;;;25.20;49.20;;;;;;5052301;28;20175;-57
2023/06/15 11:44:16;;;;;;;3.30;2.45;;;25.20;49.10;;;;;;5054420;28;20207;-57
2023/06/15 11:46:42;;;;;;;3.15;2.33;;;25.20;49.10;;;;;;5054098;28;20217;-58
2023/06/15 11:49:10;;;;;;;6.22;2.72;;;25.30;49.10;;;;;;5053003;28;20194;-57
2023/06/15 11:51:36;;;;;;;3.80;2.70;;;25.30;49.20;;;;;;5054217;28;20179;-57
2023/06/15 11:54:04;;;;;;;2.42;2.22;;;25.30;49.40;;;;;;5053809;28;20175;-57
2023/06/15 11:56:29;;;;;;;3.65;2.60;;;25.30;49.30;;;;;;5053469;28;20175;-57
2023/06/15 11:58:55;;;;;;;6.40;2.90;;;25.30;49.50;;;;;;5053905;28;20233;-58
2023/06/15 12:01:21;;;;;;;2.50;2.30;;;25.30;49.60;;;;;;5053335;28;20238;-57
2023/06/15 12:03:48;;;;;;;4.32;2.47;;;25.20;49.50;;;;;;5053493;28;20186;-58
2023/06/15 12:06:18;;;;;;;2.92;2.60;;;25.30;49.50;;;;;;5053514;28;20175;-57
2023/06/15 12:08:49;;;;;;;3.47;2.40;;;25.40;49.40;;;;;;5053223;28;20180;-57
2023/06/15 12:11:14;;;;;;;3.10;2.28;;;25.40;49.30;;;;;;5053550;28;20171;-57
2023/06/15 12:13:40;;;;;;;2.65;2.35;;;25.40;49.30;;;;;;5053874;28;20171;-57
2023/06/15 12:16:07;;;;;;;2.75;2.50;;;25.40;49.30;;;;;;5052667;28;20171;-58
2023/06/15 12:18:32;;;;;;;4.75;3.00;;;25.30;49.30;;;;;;5053329;28;20179;-58
2023/06/15 12:21:01;;;;;;;4.10;2.58;;;25.40;49.30;;;;;;5053350;28;20260;-57
2023/06/15 12:23:28;;;;;;;5.10;2.50;;;25.40;49.80;;;;;;5051738;28;20694;-58
2023/06/15 12:25:56;;;;;;;5.55;2.97;;;25.40;49.00;;;;;;5053526;28;20232;-57
2023/06/15 12:28:22;;;;;;;5.25;3.00;;;25.50;49.10;;;;;;5053425;28;20534;-57
2023/06/15 12:30:48;;;;;;;2.95;2.47;;;25.50;49.00;;;;;;5052736;28;20633;-58
2023/06/15 12:33:34;;;;;;;5.10;2.70;;;25.50;49.00;;;;;;5053085;28;20175;-58
2023/06/15 12:36:00;;;;;;;3.13;2.53;;;25.50;49.60;;;;;;5053091;28;20253;-58
2023/06/15 12:38:27;;;;;;;3.95;2.60;;;25.50;48.90;;;;;;5052311;28;20226;-58
2023/06/15 12:40:54;;;;;;;3.03;2.70;;;25.50;48.80;;;;;;5053019;28;20317;-57
2023/06/15 12:43:19;;;;;;;5.95;2.97;;;25.60;48.90;;;;;;5052866;28;20601;-57
2023/06/15 12:45:46;;;;;;;3.42;2.83;;;25.60;49.10;;;;;;5052241;28;20534;-57